Airport View

Enter AWOS ICAO identifier for current METAR.

ex. KFNL

KSIF 191900Z AUTO 10SM SCT028 SCT033 28/21 A2979 RMK AO2 T02800206

19 Jun 2019 19:15

Frequency: 119.775

Phone: 336-573-3677

Other Area AWOS: KMTV - KGSO - KINT - KBUY

TAF AMD KGSO 191827Z 1918/2018 21007KT P6SM SCT022 BKN040 TEMPO 1918/1921 VRB15G28KT 3SM -TSRA BR SCT012 BKN020CB OVC040 FM192100 23009G15KT P6SM VCTS SCT030 BKN050CB TEMPO 1921/1924 BKN030CB FM200100 22004KT P6SM SCT150 FM201400 23008G15KT P6SM BKN100